sensor_id;sensor_type;location;lat;lon;timestamp;P1;durP1;ratioP1;P2;durP2;ratioP2
72974;SDS011;61166;54.228;37.632;2023-07-20T00:00:00;6.72;;;3.13;;
72974;SDS011;61166;54.228;37.632;2023-07-20T00:02:42;7.65;;;3.25;;
72974;SDS011;61166;54.228;37.632;2023-07-20T00:05:08;7.35;;;3.58;;
72974;SDS011;61166;54.228;37.632;2023-07-20T00:07:35;10.57;;;5.20;;
72974;SDS011;61166;54.228;37.632;2023-07-20T00:10:01;8.20;;;3.70;;
72974;SDS011;61166;54.228;37.632;2023-07-20T00:12:28;8.05;;;3.92;;
72974;SDS011;61166;54.228;37.632;2023-07-20T00:14:54;7.70;;;3.45;;
72974;SDS011;61166;54.228;37.632;2023-07-20T00:17:21;21.08;;;12.95;;
72974;SDS011;61166;54.228;37.632;2023-07-20T00:19:48;9.40;;;3.90;;
72974;SDS011;61166;54.228;37.632;2023-07-20T00:22:14;9.47;;;4.17;;
72974;SDS011;61166;54.228;37.632;2023-07-20T00:24:41;24.50;;;18.40;;
72974;SDS011;61166;54.228;37.632;2023-07-20T00:27:07;13.80;;;7.55;;
72974;SDS011;61166;54.228;37.632;2023-07-20T00:29:34;13.43;;;7.38;;
72974;SDS011;61166;54.228;37.632;2023-07-20T00:32:01;8.50;;;4.55;;
72974;SDS011;61166;54.228;37.632;2023-07-20T00:34:27;8.57;;;3.57;;
72974;SDS011;61166;54.228;37.632;2023-07-20T00:36:54;10.80;;;3.70;;
72974;SDS011;61166;54.228;37.632;2023-07-20T00:39:20;6.80;;;3.58;;
72974;SDS011;61166;54.228;37.632;2023-07-20T00:41:47;8.40;;;2.72;;
72974;SDS011;61166;54.228;37.632;2023-07-20T00:44:13;19.90;;;15.52;;
72974;SDS011;61166;54.228;37.632;2023-07-20T00:46:40;13.90;;;8.07;;
72974;SDS011;61166;54.228;37.632;2023-07-20T00:49:07;29.13;;;20.25;;
72974;SDS011;61166;54.228;37.632;2023-07-20T00:51:33;9.57;;;4.60;;
72974;SDS011;61166;54.228;37.632;2023-07-20T00:54:00;10.95;;;3.50;;
72974;SDS011;61166;54.228;37.632;2023-07-20T00:56:26;7.50;;;2.95;;
72974;SDS011;61166;54.228;37.632;2023-07-20T00:58:53;7.40;;;3.20;;
72974;SDS011;61166;54.228;37.632;2023-07-20T01:01:20;8.23;;;2.83;;
72974;SDS011;61166;54.228;37.632;2023-07-20T01:03:46;7.78;;;3.30;;
72974;SDS011;61166;54.228;37.632;2023-07-20T01:06:47;12.88;;;3.65;;
72974;SDS011;61166;54.228;37.632;2023-07-20T01:09:17;8.05;;;4.05;;
72974;SDS011;61166;54.228;37.632;2023-07-20T01:14:13;8.95;;;4.00;;
72974;SDS011;61166;54.228;37.632;2023-07-20T01:16:40;9.70;;;3.38;;
72974;SDS011;61166;54.228;37.632;2023-07-20T01:19:07;7.57;;;3.03;;
72974;SDS011;61166;54.228;37.632;2023-07-20T01:21:41;10.27;;;3.88;;
72974;SDS011;61166;54.228;37.632;2023-07-20T01:26:51;5.65;;;2.42;;
72974;SDS011;61166;54.228;37.632;2023-07-20T01:32:07;15.90;;;3.58;;
72974;SDS011;61166;54.228;37.632;2023-07-20T01:34:36;6.75;;;3.28;;
72974;SDS011;61166;54.228;37.632;2023-07-20T01:37:04;8.43;;;3.23;;
72974;SDS011;61166;54.228;37.632;2023-07-20T01:39:32;8.55;;;2.72;;
72974;SDS011;61166;54.228;37.632;2023-07-20T01:41:59;6.60;;;3.00;;
72974;SDS011;61166;54.228;37.632;2023-07-20T01:44:27;6.95;;;2.67;;
72974;SDS011;61166;54.228;37.632;2023-07-20T01:46:54;8.32;;;2.72;;
72974;SDS011;61166;54.228;37.632;2023-07-20T01:49:20;6.13;;;3.03;;
72974;SDS011;61166;54.228;37.632;2023-07-20T01:51:47;5.15;;;2.33;;
72974;SDS011;61166;54.228;37.632;2023-07-20T01:54:14;5.28;;;2.72;;
72974;SDS011;61166;54.228;37.632;2023-07-20T01:56:40;7.72;;;2.80;;
72974;SDS011;61166;54.228;37.632;2023-07-20T01:59:07;6.90;;;2.50;;
72974;SDS011;61166;54.228;37.632;2023-07-20T02:01:33;8.97;;;2.67;;
72974;SDS011;61166;54.228;37.632;2023-07-20T02:04:00;5.50;;;2.60;;
72974;SDS011;61166;54.228;37.632;2023-07-20T02:06:26;6.72;;;2.72;;
72974;SDS011;61166;54.228;37.632;2023-07-20T02:08:53;7.13;;;3.00;;
72974;SDS011;61166;54.228;37.632;2023-07-20T02:11:20;6.65;;;3.05;;
72974;SDS011;61166;54.228;37.632;2023-07-20T02:13:46;6.87;;;3.23;;
72974;SDS011;61166;54.228;37.632;2023-07-20T02:16:13;6.45;;;3.20;;
72974;SDS011;61166;54.228;37.632;2023-07-20T02:18:39;5.28;;;1.75;;
72974;SDS011;61166;54.228;37.632;2023-07-20T02:21:06;4.63;;;2.33;;
72974;SDS011;61166;54.228;37.632;2023-07-20T02:23:32;6.93;;;2.83;;
72974;SDS011;61166;54.228;37.632;2023-07-20T02:26:00;6.30;;;3.20;;
72974;SDS011;61166;54.228;37.632;2023-07-20T02:28:27;6.18;;;3.38;;
72974;SDS011;61166;54.228;37.632;2023-07-20T02:30:53;7.15;;;4.00;;
72974;SDS011;61166;54.228;37.632;2023-07-20T02:33:20;8.40;;;3.97;;
72974;SDS011;61166;54.228;37.632;2023-07-20T02:35:47;5.57;;;4.30;;
72974;SDS011;61166;54.228;37.632;2023-07-20T02:38:13;9.50;;;4.17;;
72974;SDS011;61166;54.228;37.632;2023-07-20T02:40:40;7.60;;;4.35;;
72974;SDS011;61166;54.228;37.632;2023-07-20T02:43:07;7.30;;;4.70;;
72974;SDS011;61166;54.228;37.632;2023-07-20T02:45:33;7.10;;;4.70;;
72974;SDS011;61166;54.228;37.632;2023-07-20T02:48:00;6.95;;;4.53;;
72974;SDS011;61166;54.228;37.632;2023-07-20T02:50:27;7.13;;;5.17;;
72974;SDS011;61166;54.228;37.632;2023-07-20T02:52:53;6.22;;;5.03;;
72974;SDS011;61166;54.228;37.632;2023-07-20T02:55:20;7.65;;;5.32;;
72974;SDS011;61166;54.228;37.632;2023-07-20T02:57:46;8.25;;;5.53;;
72974;SDS011;61166;54.228;37.632;2023-07-20T03:00:13;8.07;;;5.72;;
72974;SDS011;61166;54.228;37.632;2023-07-20T03:02:41;7.23;;;5.40;;
72974;SDS011;61166;54.228;37.632;2023-07-20T03:05:08;8.63;;;5.78;;
72974;SDS011;61166;54.228;37.632;2023-07-20T03:07:35;6.53;;;5.47;;
72974;SDS011;61166;54.228;37.632;2023-07-20T03:10:02;6.82;;;5.15;;
72974;SDS011;61166;54.228;37.632;2023-07-20T03:12:28;7.22;;;6.25;;
72974;SDS011;61166;54.228;37.632;2023-07-20T03:14:55;7.43;;;6.27;;
72974;SDS011;61166;54.228;37.632;2023-07-20T03:17:21;8.20;;;6.13;;
72974;SDS011;61166;54.228;37.632;2023-07-20T03:19:48;8.90;;;7.50;;
72974;SDS011;61166;54.228;37.632;2023-07-20T03:22:14;11.43;;;7.63;;
72974;SDS011;61166;54.228;37.632;2023-07-20T03:24:41;8.68;;;6.93;;
72974;SDS011;61166;54.228;37.632;2023-07-20T03:27:08;8.03;;;7.10;;
72974;SDS011;61166;54.228;37.632;2023-07-20T03:29:34;9.18;;;7.95;;
72974;SDS011;61166;54.228;37.632;2023-07-20T03:32:01;9.65;;;7.75;;
72974;SDS011;61166;54.228;37.632;2023-07-20T03:34:28;10.82;;;8.32;;
72974;SDS011;61166;54.228;37.632;2023-07-20T03:36:54;9.32;;;7.85;;
72974;SDS011;61166;54.228;37.632;2023-07-20T03:39:22;9.00;;;7.87;;
72974;SDS011;61166;54.228;37.632;2023-07-20T03:41:49;9.70;;;8.77;;
72974;SDS011;61166;54.228;37.632;2023-07-20T03:44:15;9.32;;;8.43;;
72974;SDS011;61166;54.228;37.632;2023-07-20T03:46:43;8.48;;;7.63;;
72974;SDS011;61166;54.228;37.632;2023-07-20T03:49:10;11.98;;;7.88;;
72974;SDS011;61166;54.228;37.632;2023-07-20T03:51:36;8.27;;;7.57;;
72974;SDS011;61166;54.228;37.632;2023-07-20T03:54:05;8.23;;;7.50;;
72974;SDS011;61166;54.228;37.632;2023-07-20T03:56:32;10.25;;;8.60;;
72974;SDS011;61166;54.228;37.632;2023-07-20T03:58:58;9.77;;;8.93;;
72974;SDS011;61166;54.228;37.632;2023-07-20T04:01:25;9.07;;;8.20;;
72974;SDS011;61166;54.228;37.632;2023-07-20T04:03:51;9.37;;;8.47;;
72974;SDS011;61166;54.228;37.632;2023-07-20T04:06:18;9.38;;;8.57;;
72974;SDS011;61166;54.228;37.632;2023-07-20T04:08:44;9.35;;;8.60;;
72974;SDS011;61166;54.228;37.632;2023-07-20T04:11:11;10.48;;;8.63;;
72974;SDS011;61166;54.228;37.632;2023-07-20T04:13:38;14.07;;;8.30;;
72974;SDS011;61166;54.228;37.632;2023-07-20T04:16:04;9.17;;;8.47;;
72974;SDS011;61166;54.228;37.632;2023-07-20T04:18:31;9.98;;;9.02;;
72974;SDS011;61166;54.228;37.632;2023-07-20T04:20:57;9.60;;;8.90;;
72974;SDS011;61166;54.228;37.632;2023-07-20T04:23:25;8.98;;;8.05;;
72974;SDS011;61166;54.228;37.632;2023-07-20T04:25:51;10.15;;;9.38;;
72974;SDS011;61166;54.228;37.632;2023-07-20T04:28:18;10.30;;;9.37;;
72974;SDS011;61166;54.228;37.632;2023-07-20T04:30:48;9.75;;;8.77;;
72974;SDS011;61166;54.228;37.632;2023-07-20T04:33:15;9.80;;;9.10;;
72974;SDS011;61166;54.228;37.632;2023-07-20T04:35:51;9.27;;;8.57;;
72974;SDS011;61166;54.228;37.632;2023-07-20T04:38:20;9.45;;;8.60;;
72974;SDS011;61166;54.228;37.632;2023-07-20T04:40:48;9.83;;;9.00;;
72974;SDS011;61166;54.228;37.632;2023-07-20T04:43:15;9.85;;;9.15;;
72974;SDS011;61166;54.228;37.632;2023-07-20T04:45:44;10.73;;;9.82;;
72974;SDS011;61166;54.228;37.632;2023-07-20T04:48:11;10.10;;;9.30;;
72974;SDS011;61166;54.228;37.632;2023-07-20T04:50:42;10.27;;;9.35;;
72974;SDS011;61166;54.228;37.632;2023-07-20T04:53:10;9.27;;;8.57;;
72974;SDS011;61166;54.228;37.632;2023-07-20T04:55:37;11.50;;;10.60;;
72974;SDS011;61166;54.228;37.632;2023-07-20T04:58:04;11.55;;;10.60;;
72974;SDS011;61166;54.228;37.632;2023-07-20T05:00:32;10.40;;;9.50;;
72974;SDS011;61166;54.228;37.632;2023-07-20T05:02:59;10.75;;;9.95;;
72974;SDS011;61166;54.228;37.632;2023-07-20T05:05:26;10.17;;;9.27;;
72974;SDS011;61166;54.228;37.632;2023-07-20T05:07:52;9.65;;;8.85;;
72974;SDS011;61166;54.228;37.632;2023-07-20T05:10:19;9.38;;;8.55;;
72974;SDS011;61166;54.228;37.632;2023-07-20T05:12:46;11.07;;;10.10;;
72974;SDS011;61166;54.228;37.632;2023-07-20T05:15:12;9.93;;;9.23;;
72974;SDS011;61166;54.228;37.632;2023-07-20T05:17:39;8.90;;;7.97;;
72974;SDS011;61166;54.228;37.632;2023-07-20T05:20:05;10.30;;;9.43;;
72974;SDS011;61166;54.228;37.632;2023-07-20T05:22:32;10.82;;;9.90;;
72974;SDS011;61166;54.228;37.632;2023-07-20T05:24:59;10.18;;;9.23;;
72974;SDS011;61166;54.228;37.632;2023-07-20T05:27:25;12.27;;;11.32;;
72974;SDS011;61166;54.228;37.632;2023-07-20T05:29:54;9.67;;;8.77;;
72974;SDS011;61166;54.228;37.632;2023-07-20T05:32:20;11.63;;;10.73;;
72974;SDS011;61166;54.228;37.632;2023-07-20T05:34:47;9.27;;;8.32;;
72974;SDS011;61166;54.228;37.632;2023-07-20T05:37:13;11.20;;;8.93;;
72974;SDS011;61166;54.228;37.632;2023-07-20T05:39:40;10.80;;;9.77;;
72974;SDS011;61166;54.228;37.632;2023-07-20T05:42:07;10.43;;;9.43;;
72974;SDS011;61166;54.228;37.632;2023-07-20T05:44:34;10.48;;;9.65;;
72974;SDS011;61166;54.228;37.632;2023-07-20T05:47:01;7.68;;;6.90;;
72974;SDS011;61166;54.228;37.632;2023-07-20T05:49:28;10.93;;;10.02;;
72974;SDS011;61166;54.228;37.632;2023-07-20T05:51:55;10.80;;;7.30;;
72974;SDS011;61166;54.228;37.632;2023-07-20T05:54:25;7.97;;;7.17;;
72974;SDS011;61166;54.228;37.632;2023-07-20T05:56:52;9.25;;;7.03;;
72974;SDS011;61166;54.228;37.632;2023-07-20T05:59:19;7.53;;;4.93;;
72974;SDS011;61166;54.228;37.632;2023-07-20T06:01:46;10.77;;;4.75;;
72974;SDS011;61166;54.228;37.632;2023-07-20T06:04:12;6.40;;;5.72;;
72974;SDS011;61166;54.228;37.632;2023-07-20T06:06:39;6.73;;;4.37;;
72974;SDS011;61166;54.228;37.632;2023-07-20T06:09:05;7.35;;;6.68;;
72974;SDS011;61166;54.228;37.632;2023-07-20T06:11:32;6.93;;;6.10;;
72974;SDS011;61166;54.228;37.632;2023-07-20T06:13:59;7.80;;;7.00;;
72974;SDS011;61166;54.228;37.632;2023-07-20T06:16:25;8.40;;;7.70;;
72974;SDS011;61166;54.228;37.632;2023-07-20T06:18:52;10.17;;;6.57;;
72974;SDS011;61166;54.228;37.632;2023-07-20T06:21:19;5.82;;;4.45;;
72974;SDS011;61166;54.228;37.632;2023-07-20T06:23:46;9.15;;;8.25;;
72974;SDS011;61166;54.228;37.632;2023-07-20T06:26:12;8.20;;;7.50;;
72974;SDS011;61166;54.228;37.632;2023-07-20T06:28:39;10.43;;;8.80;;
72974;SDS011;61166;54.228;37.632;2023-07-20T06:31:06;9.60;;;8.67;;
72974;SDS011;61166;54.228;37.632;2023-07-20T06:33:32;9.68;;;8.88;;
72974;SDS011;61166;54.228;37.632;2023-07-20T06:35:59;8.32;;;7.70;;
72974;SDS011;61166;54.228;37.632;2023-07-20T06:38:26;7.07;;;6.47;;
72974;SDS011;61166;54.228;37.632;2023-07-20T06:40:55;12.55;;;11.20;;
72974;SDS011;61166;54.228;37.632;2023-07-20T06:43:22;8.30;;;7.50;;
72974;SDS011;61166;54.228;37.632;2023-07-20T06:45:52;8.82;;;7.88;;
72974;SDS011;61166;54.228;37.632;2023-07-20T06:48:19;11.05;;;10.07;;
72974;SDS011;61166;54.228;37.632;2023-07-20T06:50:45;8.80;;;7.00;;
72974;SDS011;61166;54.228;37.632;2023-07-20T06:53:12;7.53;;;5.57;;
72974;SDS011;61166;54.228;37.632;2023-07-20T06:55:41;7.77;;;5.30;;
72974;SDS011;61166;54.228;37.632;2023-07-20T06:58:09;7.55;;;6.32;;
72974;SDS011;61166;54.228;37.632;2023-07-20T07:00:36;9.85;;;8.98;;
72974;SDS011;61166;54.228;37.632;2023-07-20T07:03:02;9.25;;;7.43;;
72974;SDS011;61166;54.228;37.632;2023-07-20T07:05:29;9.63;;;8.93;;
72974;SDS011;61166;54.228;37.632;2023-07-20T07:07:58;9.13;;;8.47;;
72974;SDS011;61166;54.228;37.632;2023-07-20T07:10:25;7.35;;;6.25;;
72974;SDS011;61166;54.228;37.632;2023-07-20T07:12:51;9.07;;;8.32;;
72974;SDS011;61166;54.228;37.632;2023-07-20T07:15:18;8.18;;;4.25;;
72974;SDS011;61166;54.228;37.632;2023-07-20T07:17:45;10.32;;;9.13;;
72974;SDS011;61166;54.228;37.632;2023-07-20T07:20:11;9.77;;;8.97;;
72974;SDS011;61166;54.228;37.632;2023-07-20T07:22:46;8.00;;;7.22;;
72974;SDS011;61166;54.228;37.632;2023-07-20T07:25:13;11.20;;;10.20;;
72974;SDS011;61166;54.228;37.632;2023-07-20T07:27:43;10.07;;;8.23;;
72974;SDS011;61166;54.228;37.632;2023-07-20T07:30:10;6.22;;;4.85;;
72974;SDS011;61166;54.228;37.632;2023-07-20T07:32:39;9.60;;;6.17;;
72974;SDS011;61166;54.228;37.632;2023-07-20T07:35:05;7.57;;;6.43;;
72974;SDS011;61166;54.228;37.632;2023-07-20T07:37:32;9.75;;;8.50;;
72974;SDS011;61166;54.228;37.632;2023-07-20T07:40:12;9.07;;;7.72;;
72974;SDS011;61166;54.228;37.632;2023-07-20T07:42:39;9.65;;;8.70;;
72974;SDS011;61166;54.228;37.632;2023-07-20T07:45:07;6.93;;;5.37;;
72974;SDS011;61166;54.228;37.632;2023-07-20T07:47:34;10.02;;;9.00;;
72974;SDS011;61166;54.228;37.632;2023-07-20T07:50:00;11.85;;;8.18;;
72974;SDS011;61166;54.228;37.632;2023-07-20T07:52:27;9.52;;;7.97;;
72974;SDS011;61166;54.228;37.632;2023-07-20T07:54:54;8.50;;;7.60;;
72974;SDS011;61166;54.228;37.632;2023-07-20T07:57:20;6.70;;;4.70;;
72974;SDS011;61166;54.228;37.632;2023-07-20T07:59:47;9.00;;;7.85;;
72974;SDS011;61166;54.228;37.632;2023-07-20T08:02:13;8.40;;;7.75;;
72974;SDS011;61166;54.228;37.632;2023-07-20T08:04:40;8.45;;;5.75;;
72974;SDS011;61166;54.228;37.632;2023-07-20T08:07:07;6.65;;;5.15;;
72974;SDS011;61166;54.228;37.632;2023-07-20T08:09:33;8.50;;;5.73;;
72974;SDS011;61166;54.228;37.632;2023-07-20T08:12:00;8.00;;;6.25;;
72974;SDS011;61166;54.228;37.632;2023-07-20T08:14:27;6.75;;;5.18;;
72974;SDS011;61166;54.228;37.632;2023-07-20T08:16:54;7.55;;;4.47;;
72974;SDS011;61166;54.228;37.632;2023-07-20T08:19:20;9.05;;;4.05;;
72974;SDS011;61166;54.228;37.632;2023-07-20T08:21:47;7.13;;;5.67;;
72974;SDS011;61166;54.228;37.632;2023-07-20T08:24:14;29.67;;;7.57;;
72974;SDS011;61166;54.228;37.632;2023-07-20T08:26:40;8.38;;;3.90;;
72974;SDS011;61166;54.228;37.632;2023-07-20T08:29:07;7.18;;;5.00;;
72974;SDS011;61166;54.228;37.632;2023-07-20T08:31:35;7.07;;;6.35;;
72974;SDS011;61166;54.228;37.632;2023-07-20T08:34:01;6.57;;;5.87;;
72974;SDS011;61166;54.228;37.632;2023-07-20T08:36:45;9.85;;;6.30;;
72974;SDS011;61166;54.228;37.632;2023-07-20T08:39:12;7.88;;;6.95;;
72974;SDS011;61166;54.228;37.632;2023-07-20T08:41:41;8.98;;;5.70;;
72974;SDS011;61166;54.228;37.632;2023-07-20T08:44:09;9.43;;;6.05;;
72974;SDS011;61166;54.228;37.632;2023-07-20T08:46:38;7.57;;;6.07;;
72974;SDS011;61166;54.228;37.632;2023-07-20T08:49:05;9.35;;;5.50;;
72974;SDS011;61166;54.228;37.632;2023-07-20T08:51:33;6.07;;;4.65;;
72974;SDS011;61166;54.228;37.632;2023-07-20T08:54:02;9.23;;;7.43;;
72974;SDS011;61166;54.228;37.632;2023-07-20T08:56:29;7.07;;;6.18;;
72974;SDS011;61166;54.228;37.632;2023-07-20T08:58:57;7.90;;;5.33;;
72974;SDS011;61166;54.228;37.632;2023-07-20T09:01:25;6.93;;;4.38;;
72974;SDS011;61166;54.228;37.632;2023-07-20T09:03:54;6.22;;;4.75;;
72974;SDS011;61166;54.228;37.632;2023-07-20T09:06:22;6.22;;;4.57;;
72974;SDS011;61166;54.228;37.632;2023-07-20T09:08:49;6.43;;;4.20;;
72974;SDS011;61166;54.228;37.632;2023-07-20T09:11:15;6.50;;;4.03;;
72974;SDS011;61166;54.228;37.632;2023-07-20T09:13:42;6.20;;;3.70;;
72974;SDS011;61166;54.228;37.632;2023-07-20T09:16:09;6.68;;;5.28;;
72974;SDS011;61166;54.228;37.632;2023-07-20T09:18:39;8.55;;;5.25;;
72974;SDS011;61166;54.228;37.632;2023-07-20T09:21:08;8.57;;;5.05;;
72974;SDS011;61166;54.228;37.632;2023-07-20T09:23:35;7.23;;;3.83;;
72974;SDS011;61166;54.228;37.632;2023-07-20T09:26:10;7.18;;;3.75;;
72974;SDS011;61166;54.228;37.632;2023-07-20T09:28:41;6.53;;;3.88;;
72974;SDS011;61166;54.228;37.632;2023-07-20T09:31:21;6.53;;;4.25;;
72974;SDS011;61166;54.228;37.632;2023-07-20T09:33:49;6.22;;;4.32;;
72974;SDS011;61166;54.228;37.632;2023-07-20T09:36:20;6.83;;;3.43;;
72974;SDS011;61166;54.228;37.632;2023-07-20T09:39:07;10.90;;;4.18;;
72974;SDS011;61166;54.228;37.632;2023-07-20T09:41:41;8.88;;;4.10;;
72974;SDS011;61166;54.228;37.632;2023-07-20T09:44:11;8.60;;;4.63;;
72974;SDS011;61166;54.228;37.632;2023-07-20T09:46:47;7.53;;;3.55;;
72974;SDS011;61166;54.228;37.632;2023-07-20T09:49:17;7.87;;;3.60;;
72974;SDS011;61166;54.228;37.632;2023-07-20T09:51:47;9.18;;;4.13;;
72974;SDS011;61166;54.228;37.632;2023-07-20T09:54:15;6.85;;;3.72;;
72974;SDS011;61166;54.228;37.632;2023-07-20T09:56:43;7.25;;;3.97;;
72974;SDS011;61166;54.228;37.632;2023-07-20T09:59:12;8.88;;;4.13;;
72974;SDS011;61166;54.228;37.632;2023-07-20T10:01:39;8.53;;;4.00;;
72974;SDS011;61166;54.228;37.632;2023-07-20T10:04:09;8.02;;;3.83;;
72974;SDS011;61166;54.228;37.632;2023-07-20T10:06:39;6.40;;;3.78;;
72974;SDS011;61166;54.228;37.632;2023-07-20T10:09:10;8.15;;;3.92;;
72974;SDS011;61166;54.228;37.632;2023-07-20T10:11:38;7.50;;;4.63;;
72974;SDS011;61166;54.228;37.632;2023-07-20T10:14:38;7.47;;;4.60;;
72974;SDS011;61166;54.228;37.632;2023-07-20T10:17:12;8.63;;;4.47;;
72974;SDS011;61166;54.228;37.632;2023-07-20T10:22:18;9.35;;;2.90;;
72974;SDS011;61166;54.228;37.632;2023-07-20T10:24:51;5.97;;;3.17;;
72974;SDS011;61166;54.228;37.632;2023-07-20T10:27:18;7.60;;;3.47;;
72974;SDS011;61166;54.228;37.632;2023-07-20T10:29:44;5.80;;;3.35;;
72974;SDS011;61166;54.228;37.632;2023-07-20T10:32:13;6.30;;;3.50;;
72974;SDS011;61166;54.228;37.632;2023-07-20T10:34:41;7.70;;;3.55;;
72974;SDS011;61166;54.228;37.632;2023-07-20T10:37:07;9.02;;;3.47;;
72974;SDS011;61166;54.228;37.632;2023-07-20T10:39:34;7.57;;;3.20;;
72974;SDS011;61166;54.228;37.632;2023-07-20T10:42:06;7.72;;;3.17;;
72974;SDS011;61166;54.228;37.632;2023-07-20T10:44:34;6.18;;;2.90;;
72974;SDS011;61166;54.228;37.632;2023-07-20T10:47:08;7.07;;;3.58;;
72974;SDS011;61166;54.228;37.632;2023-07-20T10:52:41;6.40;;;3.07;;
72974;SDS011;61166;54.228;37.632;2023-07-20T10:55:14;6.70;;;3.50;;
72974;SDS011;61166;54.228;37.632;2023-07-20T10:57:41;7.93;;;3.42;;
72974;SDS011;61166;54.228;37.632;2023-07-20T11:00:11;7.10;;;2.75;;
72974;SDS011;61166;54.228;37.632;2023-07-20T11:08:06;9.15;;;3.90;;
72974;SDS011;61166;54.228;37.632;2023-07-20T11:10:36;8.30;;;3.63;;
72974;SDS011;61166;54.228;37.632;2023-07-20T11:18:22;8.90;;;3.70;;
72974;SDS011;61166;54.228;37.632;2023-07-20T11:20:54;7.57;;;4.28;;
72974;SDS011;61166;54.228;37.632;2023-07-20T11:23:21;9.80;;;4.15;;
72974;SDS011;61166;54.228;37.632;2023-07-20T11:25:48;7.70;;;4.13;;
72974;SDS011;61166;54.228;37.632;2023-07-20T11:28:15;8.45;;;3.67;;
72974;SDS011;61166;54.228;37.632;2023-07-20T11:30:42;7.73;;;3.97;;
72974;SDS011;61166;54.228;37.632;2023-07-20T11:33:09;8.07;;;4.57;;
72974;SDS011;61166;54.228;37.632;2023-07-20T11:35:42;8.02;;;4.47;;
72974;SDS011;61166;54.228;37.632;2023-07-20T11:38:09;10.10;;;4.72;;
72974;SDS011;61166;54.228;37.632;2023-07-20T11:40:35;9.57;;;4.57;;
72974;SDS011;61166;54.228;37.632;2023-07-20T11:43:05;11.47;;;4.60;;
72974;SDS011;61166;54.228;37.632;2023-07-20T11:45:34;10.27;;;4.25;;
72974;SDS011;61166;54.228;37.632;2023-07-20T11:48:01;8.18;;;4.35;;
72974;SDS011;61166;54.228;37.632;2023-07-20T11:50:27;7.28;;;4.45;;
72974;SDS011;61166;54.228;37.632;2023-07-20T11:52:54;7.35;;;4.25;;
72974;SDS011;61166;54.228;37.632;2023-07-20T11:55:20;7.10;;;4.13;;
72974;SDS011;61166;54.228;37.632;2023-07-20T11:58:06;8.15;;;3.85;;
72974;SDS011;61166;54.228;37.632;2023-07-20T12:00:34;7.03;;;3.30;;
72974;SDS011;61166;54.228;37.632;2023-07-20T12:03:04;7.03;;;3.40;;
72974;SDS011;61166;54.228;37.632;2023-07-20T12:05:31;7.28;;;3.72;;
72974;SDS011;61166;54.228;37.632;2023-07-20T12:08:04;6.57;;;3.57;;
72974;SDS011;61166;54.228;37.632;2023-07-20T12:10:31;7.78;;;3.45;;
72974;SDS011;61166;54.228;37.632;2023-07-20T12:13:03;7.20;;;3.60;;
72974;SDS011;61166;54.228;37.632;2023-07-20T12:15:30;8.23;;;3.50;;
72974;SDS011;61166;54.228;37.632;2023-07-20T12:18:00;7.43;;;3.95;;
72974;SDS011;61166;54.228;37.632;2023-07-20T12:20:35;7.97;;;3.77;;
72974;SDS011;61166;54.228;37.632;2023-07-20T12:25:36;7.47;;;3.55;;
72974;SDS011;61166;54.228;37.632;2023-07-20T12:28:10;10.93;;;4.85;;
72974;SDS011;61166;54.228;37.632;2023-07-20T12:30:47;10.15;;;4.15;;
72974;SDS011;61166;54.228;37.632;2023-07-20T12:33:14;9.97;;;4.43;;
72974;SDS011;61166;54.228;37.632;2023-07-20T12:35:40;7.95;;;4.68;;
72974;SDS011;61166;54.228;37.632;2023-07-20T12:38:07;9.23;;;4.03;;
72974;SDS011;61166;54.228;37.632;2023-07-20T12:40:34;10.10;;;4.20;;
72974;SDS011;61166;54.228;37.632;2023-07-20T12:43:01;9.23;;;4.70;;
72974;SDS011;61166;54.228;37.632;2023-07-20T12:45:27;9.77;;;5.00;;
72974;SDS011;61166;54.228;37.632;2023-07-20T12:47:55;10.18;;;4.97;;
72974;SDS011;61166;54.228;37.632;2023-07-20T12:50:21;10.02;;;4.95;;
72974;SDS011;61166;54.228;37.632;2023-07-20T12:52:48;6.63;;;3.45;;
72974;SDS011;61166;54.228;37.632;2023-07-20T12:55:14;10.57;;;4.05;;
72974;SDS011;61166;54.228;37.632;2023-07-20T12:57:41;12.67;;;4.33;;
72974;SDS011;61166;54.228;37.632;2023-07-20T13:00:09;8.40;;;3.83;;
72974;SDS011;61166;54.228;37.632;2023-07-20T13:02:37;9.57;;;4.50;;
72974;SDS011;61166;54.228;37.632;2023-07-20T13:05:04;11.73;;;3.92;;
72974;SDS011;61166;54.228;37.632;2023-07-20T13:07:32;12.88;;;4.15;;
72974;SDS011;61166;54.228;37.632;2023-07-20T13:10:03;6.93;;;3.77;;
72974;SDS011;61166;54.228;37.632;2023-07-20T13:12:31;9.00;;;4.43;;
72974;SDS011;61166;54.228;37.632;2023-07-20T13:14:58;9.90;;;4.00;;
72974;SDS011;61166;54.228;37.632;2023-07-20T13:17:25;9.65;;;4.47;;
72974;SDS011;61166;54.228;37.632;2023-07-20T13:19:52;9.70;;;4.28;;
72974;SDS011;61166;54.228;37.632;2023-07-20T13:22:18;10.00;;;4.57;;
72974;SDS011;61166;54.228;37.632;2023-07-20T13:24:45;11.98;;;4.95;;
72974;SDS011;61166;54.228;37.632;2023-07-20T13:27:12;10.57;;;4.90;;
72974;SDS011;61166;54.228;37.632;2023-07-20T13:29:38;9.13;;;4.65;;
72974;SDS011;61166;54.228;37.632;2023-07-20T13:32:07;10.30;;;4.68;;
72974;SDS011;61166;54.228;37.632;2023-07-20T13:34:34;10.33;;;5.50;;
72974;SDS011;61166;54.228;37.632;2023-07-20T13:37:05;11.55;;;4.18;;
72974;SDS011;61166;54.228;37.632;2023-07-20T13:39:31;9.80;;;5.03;;
72974;SDS011;61166;54.228;37.632;2023-07-20T13:41:58;10.57;;;4.75;;
72974;SDS011;61166;54.228;37.632;2023-07-20T13:44:25;11.65;;;4.78;;
72974;SDS011;61166;54.228;37.632;2023-07-20T13:46:55;12.27;;;4.87;;
72974;SDS011;61166;54.228;37.632;2023-07-20T13:49:43;9.93;;;4.82;;
72974;SDS011;61166;54.228;37.632;2023-07-20T13:52:13;9.73;;;4.63;;
72974;SDS011;61166;54.228;37.632;2023-07-20T13:54:42;8.98;;;4.65;;
72974;SDS011;61166;54.228;37.632;2023-07-20T13:57:13;9.73;;;4.30;;
72974;SDS011;61166;54.228;37.632;2023-07-20T13:59:41;8.70;;;4.63;;
72974;SDS011;61166;54.228;37.632;2023-07-20T14:02:08;9.05;;;4.03;;
72974;SDS011;61166;54.228;37.632;2023-07-20T14:04:37;8.82;;;4.25;;
72974;SDS011;61166;54.228;37.632;2023-07-20T14:07:04;8.95;;;3.78;;
72974;SDS011;61166;54.228;37.632;2023-07-20T14:09:31;8.70;;;3.85;;
72974;SDS011;61166;54.228;37.632;2023-07-20T14:11:58;8.43;;;4.27;;
72974;SDS011;61166;54.228;37.632;2023-07-20T14:14:28;7.97;;;3.88;;
72974;SDS011;61166;54.228;37.632;2023-07-20T14:16:55;10.30;;;4.55;;
72974;SDS011;61166;54.228;37.632;2023-07-20T14:19:21;10.10;;;4.15;;
72974;SDS011;61166;54.228;37.632;2023-07-20T14:21:48;7.43;;;3.55;;
72974;SDS011;61166;54.228;37.632;2023-07-20T14:24:14;12.13;;;4.17;;
72974;SDS011;61166;54.228;37.632;2023-07-20T14:26:44;10.35;;;3.97;;
72974;SDS011;61166;54.228;37.632;2023-07-20T14:29:12;11.07;;;3.88;;
72974;SDS011;61166;54.228;37.632;2023-07-20T14:31:40;9.23;;;4.32;;
72974;SDS011;61166;54.228;37.632;2023-07-20T14:34:06;10.52;;;4.28;;
72974;SDS011;61166;54.228;37.632;2023-07-20T14:36:33;9.60;;;5.00;;
72974;SDS011;61166;54.228;37.632;2023-07-20T14:39:00;9.88;;;4.03;;
72974;SDS011;61166;54.228;37.632;2023-07-20T14:41:27;10.25;;;4.45;;
72974;SDS011;61166;54.228;37.632;2023-07-20T14:43:53;8.70;;;4.03;;
72974;SDS011;61166;54.228;37.632;2023-07-20T14:46:20;10.13;;;4.05;;
72974;SDS011;61166;54.228;37.632;2023-07-20T14:48:47;8.50;;;4.37;;
72974;SDS011;61166;54.228;37.632;2023-07-20T14:51:15;10.13;;;4.43;;
72974;SDS011;61166;54.228;37.632;2023-07-20T14:53:42;10.05;;;4.53;;
72974;SDS011;61166;54.228;37.632;2023-07-20T14:56:08;9.90;;;4.25;;
72974;SDS011;61166;54.228;37.632;2023-07-20T14:58:35;24.77;;;15.30;;
72974;SDS011;61166;54.228;37.632;2023-07-20T15:01:02;12.43;;;5.83;;